Time;durP1;ratioP1;P1;durP2;ratioP2;P2;SDS_P1;SDS_P2;PMS_P1;PMS_P2;Temp;Humidity;BMP_temperature;BMP_pressure;BME280_temperature;BME280_humidity;BME280_pressure;Samples;Min_cycle;Max_cycle;Signal;HPM_P1;HPM_P2
2024/01/01 00:02:13;;;;;;;85.40;50.20;;;;;;;3.73;82.54;96270.55;107809;1238;98787;-79
2024/01/01 00:04:39;;;;;;;74.80;45.60;;;;;;;3.69;82.49;96267.44;107840;1235;97908;-79
2024/01/01 00:07:06;;;;;;;75.60;45.40;;;;;;;3.63;82.35;96263.86;107849;1244;98588;-79
2024/01/01 00:09:32;;;;;;;63.90;39.20;;;;;;;3.58;82.53;96266.58;107845;1248;97926;-78
2024/01/01 00:11:58;;;;;;;67.30;38.40;;;;;;;3.54;82.70;96265.81;107770;1244;98354;-79
2024/01/01 00:14:24;;;;;;;68.90;40.40;;;;;;;3.52;82.85;96273.92;107669;1239;97947;-75
2024/01/01 00:16:51;;;;;;;66.80;39.50;;;;;;;3.51;82.97;96265.05;107777;1238;97897;-75
2024/01/01 00:19:17;;;;;;;73.00;41.50;;;;;;;3.49;82.93;96266.16;107860;1239;98839;-74
2024/01/01 00:21:43;;;;;;;77.90;43.90;;;;;;;3.47;82.92;96265.66;107820;1240;98019;-75
2024/01/01 00:24:10;;;;;;;77.10;44.20;;;;;;;3.48;82.96;96253.88;107836;1241;99198;-75
2024/01/01 00:26:36;;;;;;;78.30;44.80;;;;;;;3.46;82.92;96256.27;107822;1241;99141;-75
2024/01/01 00:29:03;;;;;;;73.60;45.00;;;;;;;3.42;82.90;96256.86;107705;1249;97916;-75
2024/01/01 00:31:31;;;;;;;75.00;45.90;;;;;;;3.41;82.90;96262.02;107777;1241;98358;-75
2024/01/01 00:33:57;;;;;;;74.30;42.80;;;;;;;3.39;82.94;96265.91;107789;1239;103425;-78
2024/01/01 00:36:25;;;;;;;76.50;45.10;;;;;;;3.34;82.95;96265.92;107779;1240;100309;-78
2024/01/01 00:38:52;;;;;;;73.80;44.00;;;;;;;3.32;83.08;96266.19;107778;1238;98068;-78
2024/01/01 00:41:19;;;;;;;82.60;49.40;;;;;;;3.29;83.07;96257.91;107797;1241;97915;-78
2024/01/01 00:43:46;;;;;;;78.30;45.30;;;;;;;3.27;83.17;96251.30;107793;1238;98820;-79
2024/01/01 00:46:12;;;;;;;95.80;51.90;;;;;;;3.28;83.21;96245.22;107883;1236;99176;-77
2024/01/01 00:48:38;;;;;;;87.30;46.00;;;;;;;3.28;83.21;96250.77;107672;1238;99456;-78
2024/01/01 00:51:05;;;;;;;78.50;43.40;;;;;;;3.27;83.33;96255.92;107773;1239;97964;-74
2024/01/01 00:53:32;;;;;;;74.30;45.00;;;;;;;3.28;83.36;96257.06;107867;1238;98356;-75
2024/01/01 00:55:58;;;;;;;81.70;44.70;;;;;;;3.30;83.31;96257.46;107865;1246;99031;-75
2024/01/01 00:58:24;;;;;;;81.40;44.30;;;;;;;3.28;83.31;96254.61;107753;1248;98872;-75
2024/01/01 01:00:50;;;;;;;82.40;45.50;;;;;;;3.28;83.24;96249.78;107742;1239;97915;-74
2024/01/01 01:03:17;;;;;;;72.80;42.10;;;;;;;3.27;83.22;96249.37;107785;1238;98626;-79
2024/01/01 01:05:43;;;;;;;70.40;41.50;;;;;;;3.24;83.22;96251.89;107885;1238;98019;-78
2024/01/01 01:08:09;;;;;;;78.40;42.40;;;;;;;3.20;83.17;96244.70;107811;1249;99350;-78
2024/01/01 01:10:36;;;;;;;72.60;41.80;;;;;;;3.17;83.27;96249.17;107691;1239;98021;-76
2024/01/01 01:13:02;;;;;;;73.30;43.10;;;;;;;3.15;83.33;96245.17;107737;1239;99173;-76
2024/01/01 01:15:29;;;;;;;67.80;40.50;;;;;;;3.15;83.40;96246.84;107874;1249;98835;-76
2024/01/01 01:17:56;;;;;;;59.20;36.80;;;;;;;3.15;83.47;96246.56;107811;1247;99866;-76
2024/01/01 01:20:22;;;;;;;57.80;35.90;;;;;;;3.18;83.61;96242.37;107810;1246;98017;-76
2024/01/01 01:22:48;;;;;;;60.40;36.80;;;;;;;3.19;83.74;96240.78;107784;1239;97996;-76
2024/01/01 01:25:15;;;;;;;59.30;37.10;;;;;;;3.23;83.77;96241.19;107865;1237;97899;-76
2024/01/01 01:27:41;;;;;;;58.80;37.10;;;;;;;3.23;83.77;96236.89;107816;1247;99702;-76
2024/01/01 01:30:09;;;;;;;60.80;39.70;;;;;;;3.24;83.77;96237.75;107780;1248;99165;-71
2024/01/01 01:32:35;;;;;;;59.40;37.10;;;;;;;3.27;83.79;96235.01;107807;1238;97908;-75
2024/01/01 01:35:02;;;;;;;60.50;39.10;;;;;;;3.25;83.74;96239.80;107813;1235;99138;-74
2024/01/01 01:37:28;;;;;;;60.90;39.40;;;;;;;3.24;83.78;96237.23;107876;1243;98043;-75
2024/01/01 01:39:55;;;;;;;78.50;57.20;;;;;;;3.25;83.84;96227.91;107795;1239;98525;-75
2024/01/01 01:42:22;;;;;;;65.50;43.40;;;;;;;3.27;83.98;96230.54;107791;1244;98805;-75
2024/01/01 01:44:48;;;;;;;58.40;37.30;;;;;;;3.29;83.99;96227.96;107802;1235;99055;-76
2024/01/01 01:47:15;;;;;;;55.10;35.40;;;;;;;3.31;84.04;96225.84;107859;1247;98026;-78
2024/01/01 01:49:41;;;;;;;55.60;34.60;;;;;;;3.31;84.01;96223.67;107769;1241;98014;-78
2024/01/01 01:52:09;;;;;;;57.40;34.70;;;;;;;3.32;84.13;96218.26;107836;1245;97878;-79
2024/01/01 01:54:36;;;;;;;57.40;33.40;;;;;;;3.34;84.23;96214.39;107860;1239;97951;-79
2024/01/01 01:57:05;;;;;;;54.00;33.20;;;;;;;3.35;84.17;96210.50;107767;1235;97957;-78
2024/01/01 01:59:31;;;;;;;50.40;33.30;;;;;;;3.33;84.18;96209.17;107906;1238;97890;-79
2024/01/01 02:01:58;;;;;;;48.90;31.30;;;;;;;3.35;84.27;96213.00;107784;1238;98720;-72
2024/01/01 02:04:25;;;;;;;48.10;30.40;;;;;;;3.38;84.33;96223.10;107794;1243;99141;-72
2024/01/01 02:06:51;;;;;;;54.90;32.30;;;;;;;3.39;84.42;96232.91;107762;1245;97921;-73
2024/01/01 02:09:18;;;;;;;49.50;30.50;;;;;;;3.41;84.33;96239.91;107826;1241;97915;-76
2024/01/01 02:11:44;;;;;;;44.90;28.30;;;;;;;3.43;84.32;96243.65;107617;1237;99145;-75
2024/01/01 02:14:12;;;;;;;43.40;28.10;;;;;;;3.44;84.28;96237.51;107758;1246;97919;-76
2024/01/01 02:16:39;;;;;;;45.00;29.00;;;;;;;3.44;84.39;96232.14;107900;1238;98362;-75
2024/01/01 02:19:19;;;;;;;52.80;31.20;;;;;;;3.46;84.41;96233.84;107811;1238;98797;-75
2024/01/01 02:21:47;;;;;;;64.40;45.50;;;;;;;3.44;84.38;96232.99;107786;1235;99024;-76
2024/01/01 02:24:15;;;;;;;57.50;38.90;;;;;;;3.44;84.46;96229.14;107856;1237;97936;-75
2024/01/01 02:26:43;;;;;;;47.00;31.60;;;;;;;3.44;84.48;96229.84;107725;1238;98401;-76
2024/01/01 02:29:10;;;;;;;44.10;30.00;;;;;;;3.45;84.44;96224.91;107795;1249;97925;-76
2024/01/01 02:31:37;;;;;;;46.80;30.40;;;;;;;3.42;84.29;96219.15;107844;1241;99431;-75
2024/01/01 02:34:03;;;;;;;44.70;29.10;;;;;;;3.41;84.21;96221.64;107772;1239;98531;-75
2024/01/01 02:36:34;;;;;;;43.10;27.90;;;;;;;3.39;84.16;96222.06;107770;1239;97961;-75
2024/01/01 02:39:00;;;;;;;46.30;28.30;;;;;;;3.39;84.18;96218.59;107806;1237;99158;-75
2024/01/01 02:41:27;;;;;;;44.40;28.50;;;;;;;3.37;84.16;96214.84;107807;1237;99034;-74
2024/01/01 02:43:53;;;;;;;46.40;28.80;;;;;;;3.36;84.07;96222.73;107810;1249;97944;-75
2024/01/01 02:46:19;;;;;;;46.30;27.50;;;;;;;3.34;84.06;96224.92;107819;1240;97947;-78
2024/01/01 02:48:45;;;;;;;42.00;26.20;;;;;;;3.31;84.06;96220.51;107584;1238;98436;-79
2024/01/01 02:51:12;;;;;;;38.20;23.40;;;;;;;3.29;84.15;96221.06;107820;1238;98025;-78
2024/01/01 02:53:38;;;;;;;34.30;22.40;;;;;;;3.27;84.24;96215.11;107833;1239;99125;-79
2024/01/01 02:56:05;;;;;;;35.40;23.00;;;;;;;3.26;84.32;96216.38;107855;1239;97902;-79
2024/01/01 02:58:31;;;;;;;35.90;23.80;;;;;;;3.28;84.37;96215.19;107812;1238;98433;-78
2024/01/01 03:00:57;;;;;;;39.90;25.00;;;;;;;3.29;84.36;96217.20;107812;1238;97943;-76
2024/01/01 03:03:23;;;;;;;35.80;23.30;;;;;;;3.28;84.42;96206.98;107765;1245;98841;-75
2024/01/01 03:05:50;;;;;;;38.10;24.30;;;;;;;3.29;84.40;96206.46;107803;1238;98033;-78
2024/01/01 03:08:16;;;;;;;36.20;23.90;;;;;;;3.28;84.46;96195.58;107817;1240;98504;-79
2024/01/01 03:10:42;;;;;;;36.30;23.00;;;;;;;3.29;84.58;96190.45;107822;1237;98176;-78
2024/01/01 03:13:09;;;;;;;35.90;23.00;;;;;;;3.29;84.63;96190.34;107770;1243;98490;-79
2024/01/01 03:15:35;;;;;;;31.60;22.30;;;;;;;3.30;84.63;96193.88;107836;1245;97895;-79
2024/01/01 03:18:02;;;;;;;36.90;22.90;;;;;;;3.29;84.53;96190.86;107805;1238;98488;-76
2024/01/01 03:20:31;;;;;;;35.20;23.20;;;;;;;3.26;84.46;96187.73;107802;1241;97916;-75
2024/01/01 03:22:57;;;;;;;35.10;22.80;;;;;;;3.26;84.48;96185.05;107806;1238;101197;-75
2024/01/01 03:25:24;;;;;;;35.10;22.20;;;;;;;3.28;84.58;96187.45;107790;1238;97956;-76
2024/01/01 03:27:50;;;;;;;33.50;21.40;;;;;;;3.30;84.57;96187.05;107759;1235;99167;-76
2024/01/01 03:30:18;;;;;;;34.30;21.80;;;;;;;3.31;84.62;96189.86;107859;1240;99164;-77
2024/01/01 03:32:46;;;;;;;31.10;20.70;;;;;;;3.31;84.46;96190.44;107800;1235;101332;-79
2024/01/01 03:35:12;;;;;;;31.20;20.00;;;;;;;3.29;84.51;96191.73;107767;1239;100271;-79
2024/01/01 03:37:38;;;;;;;32.80;20.70;;;;;;;3.27;84.50;96186.06;107808;1239;97940;-79
2024/01/01 03:40:06;;;;;;;30.10;19.60;;;;;;;3.24;84.44;96184.45;107834;1235;98018;-79
2024/01/01 03:42:32;;;;;;;30.30;20.10;;;;;;;3.23;84.44;96182.44;107837;1238;97860;-79
2024/01/01 03:44:59;;;;;;;30.40;20.20;;;;;;;3.23;84.46;96176.44;107804;1248;97943;-79
2024/01/01 03:47:26;;;;;;;29.60;19.30;;;;;;;3.22;84.55;96173.36;107772;1238;97940;-74
2024/01/01 03:49:52;;;;;;;27.50;19.20;;;;;;;3.24;84.55;96172.36;107800;1238;97938;-75
2024/01/01 03:52:18;;;;;;;32.40;21.00;;;;;;;3.24;84.56;96175.25;107806;1238;97905;-75
2024/01/01 03:54:44;;;;;;;32.30;20.40;;;;;;;3.25;84.53;96178.02;107879;1247;97976;-74
2024/01/01 03:57:11;;;;;;;34.00;21.90;;;;;;;3.26;84.69;96179.41;107796;1239;97998;-76
2024/01/01 03:59:37;;;;;;;32.00;21.40;;;;;;;3.26;84.68;96173.05;107784;1239;97922;-75
2024/01/01 04:02:05;;;;;;;35.20;22.00;;;;;;;3.24;84.74;96167.92;107786;1238;97924;-76
2024/01/01 04:04:31;;;;;;;34.00;21.50;;;;;;;3.24;84.77;96161.20;107570;1247;99172;-76
2024/01/01 04:06:58;;;;;;;34.40;21.20;;;;;;;3.24;84.80;96159.80;107769;1246;98024;-75
2024/01/01 04:09:24;;;;;;;35.60;21.50;;;;;;;3.24;84.85;96159.39;107733;1238;98332;-75
2024/01/01 04:11:50;;;;;;;39.70;23.00;;;;;;;3.25;84.85;96163.41;107763;1238;97957;-76
2024/01/01 04:14:16;;;;;;;37.00;22.80;;;;;;;3.25;84.96;96164.50;107811;1236;97930;-76
2024/01/01 04:16:43;;;;;;;34.50;22.30;;;;;;;3.27;85.06;96168.09;107855;1239;97887;-75
2024/01/01 04:19:09;;;;;;;35.90;22.60;;;;;;;3.31;85.04;96175.86;107771;1239;98335;-76
2024/01/01 04:21:39;;;;;;;38.40;24.60;;;;;;;3.30;84.99;96175.24;107655;1237;98487;-74
2024/01/01 04:24:09;;;;;;;35.90;23.50;;;;;;;3.28;84.86;96179.24;107700;1238;101386;-79
2024/01/01 04:26:38;;;;;;;36.90;22.90;;;;;;;3.23;84.87;96175.70;107629;1239;99934;-79
2024/01/01 04:29:04;;;;;;;36.60;22.10;;;;;;;3.22;84.93;96172.09;107764;1243;98300;-79
2024/01/01 04:31:31;;;;;;;34.70;22.50;;;;;;;3.20;84.84;96174.29;107814;1243;97924;-79
2024/01/01 04:33:57;;;;;;;37.40;23.20;;;;;;;3.16;84.94;96178.19;107754;1240;98269;-78
2024/01/01 04:36:23;;;;;;;36.70;23.60;;;;;;;3.16;84.92;96174.29;107810;1248;98445;-78
2024/01/01 04:38:49;;;;;;;37.80;23.70;;;;;;;3.19;85.02;96169.98;107790;1235;97915;-79
2024/01/01 04:41:16;;;;;;;35.80;23.40;;;;;;;3.19;85.02;96171.04;107624;1241;98008;-79
2024/01/01 04:43:44;;;;;;;39.20;23.20;;;;;;;3.17;84.96;96167.21;107733;1238;97917;-76
2024/01/01 04:46:10;;;;;;;37.20;24.80;;;;;;;3.18;85.02;96163.69;107798;1238;97851;-72
2024/01/01 04:48:37;;;;;;;35.80;23.50;;;;;;;3.21;84.98;96164.45;107720;1238;97968;-72
2024/01/01 04:51:05;;;;;;;33.60;22.20;;;;;;;3.22;84.99;96161.99;107880;1246;98442;-71
2024/01/01 04:53:31;;;;;;;40.00;23.80;;;;;;;3.23;85.07;96162.17;107990;1239;103466;-70
2024/01/01 04:55:57;;;;;;;33.00;23.60;;;;;;;3.27;85.06;96164.10;107892;1243;97915;-71
2024/01/01 04:58:24;;;;;;;34.50;23.10;;;;;;;3.26;85.01;96162.55;107811;1249;99168;-71
2024/01/01 05:00:50;;;;;;;37.50;25.50;;;;;;;3.26;85.07;96162.22;107858;1239;97951;-71
2024/01/01 05:03:16;;;;;;;40.00;25.30;;;;;;;3.23;85.07;96159.75;107821;1248;103249;-79
2024/01/01 05:05:43;;;;;;;40.60;26.10;;;;;;;3.22;85.15;96153.83;107833;1249;97899;-80
2024/01/01 05:08:09;;;;;;;40.20;26.30;;;;;;;3.22;85.12;96151.98;107738;1235;98636;-82
2024/01/01 05:10:36;;;;;;;39.70;26.40;;;;;;;3.20;85.20;96142.29;107838;1243;97932;-79
2024/01/01 05:13:03;;;;;;;43.00;25.90;;;;;;;3.22;85.31;96138.85;107801;1239;103745;-79
2024/01/01 05:15:29;;;;;;;39.90;25.90;;;;;;;3.23;85.34;96139.80;107784;1242;98567;-80
2024/01/01 05:17:56;;;;;;;44.60;27.20;;;;;;;3.25;85.37;96139.79;107800;1248;99110;-74
2024/01/01 05:20:22;;;;;;;51.80;32.10;;;;;;;3.25;85.34;96133.30;107887;1238;98021;-74
2024/01/01 05:22:48;;;;;;;46.40;28.80;;;;;;;3.27;85.39;96122.94;107778;1239;103511;-74
2024/01/01 05:25:14;;;;;;;45.10;28.90;;;;;;;3.29;85.50;96120.05;107785;1245;98006;-74
2024/01/01 05:27:41;;;;;;;47.50;30.80;;;;;;;3.28;85.51;96110.94;107790;1237;98826;-74
2024/01/01 05:30:08;;;;;;;54.00;33.10;;;;;;;3.30;85.47;96112.63;107853;1239;97897;-74
2024/01/01 05:32:35;;;;;;;49.50;31.60;;;;;;;3.29;85.53;96116.52;107791;1239;103594;-74
2024/01/01 05:35:01;;;;;;;47.00;29.80;;;;;;;3.29;85.62;96115.78;107814;1249;99052;-74
2024/01/01 05:37:27;;;;;;;46.30;30.00;;;;;;;3.32;85.68;96117.41;107742;1239;97930;-74
2024/01/01 05:39:54;;;;;;;49.60;29.50;;;;;;;3.35;85.71;96110.73;107828;1238;99028;-74
2024/01/01 05:42:20;;;;;;;47.60;29.60;;;;;;;3.36;85.67;96114.52;107784;1239;103477;-74
2024/01/01 05:44:46;;;;;;;44.50;28.60;;;;;;;3.39;85.67;96118.41;107788;1238;97870;-74
2024/01/01 05:47:13;;;;;;;44.20;30.30;;;;;;;3.39;85.70;96115.05;107763;1239;99030;-74
2024/01/01 05:49:39;;;;;;;49.80;31.30;;;;;;;3.42;85.72;96105.42;107826;1238;98693;-74
2024/01/01 05:52:05;;;;;;;51.80;32.60;;;;;;;3.45;85.75;96094.73;107774;1235;103895;-74
2024/01/01 05:54:31;;;;;;;50.50;31.00;;;;;;;3.47;85.85;96092.77;107782;1239;99183;-74
2024/01/01 05:56:58;;;;;;;50.50;30.60;;;;;;;3.47;85.79;96086.38;107771;1242;98006;-74
2024/01/01 05:59:24;;;;;;;43.40;28.80;;;;;;;3.48;85.84;96087.48;107815;1238;99170;-74
2024/01/01 06:01:50;;;;;;;49.50;30.40;;;;;;;3.49;85.86;96084.74;107648;1243;103671;-78
2024/01/01 06:04:16;;;;;;;46.10;30.30;;;;;;;3.51;85.77;96082.65;107810;1238;97971;-77
2024/01/01 06:06:43;;;;;;;50.10;31.00;;;;;;;3.51;85.94;96078.91;107784;1239;98806;-77
2024/01/01 06:09:09;;;;;;;47.20;30.60;;;;;;;3.54;85.95;96081.59;107853;1238;99082;-77
2024/01/01 06:11:36;;;;;;;47.80;29.30;;;;;;;3.56;85.91;96078.27;107800;1243;102008;-78
2024/01/01 06:14:02;;;;;;;47.90;30.90;;;;;;;3.59;85.91;96083.91;107829;1239;97931;-77
2024/01/01 06:16:29;;;;;;;43.50;28.00;;;;;;;3.61;85.86;96089.77;107747;1238;97891;-78
2024/01/01 06:18:55;;;;;;;52.10;31.50;;;;;;;3.62;85.85;96090.33;107769;1239;97927;-77
2024/01/01 06:21:21;;;;;;;46.20;28.30;;;;;;;3.62;85.82;96089.21;107727;1238;101147;-78
2024/01/01 06:23:48;;;;;;;47.80;29.30;;;;;;;3.61;85.92;96089.89;107785;1245;98835;-77
2024/01/01 06:26:14;;;;;;;48.30;30.10;;;;;;;3.59;85.95;96084.78;107703;1238;99194;-78
2024/01/01 06:28:40;;;;;;;49.20;29.60;;;;;;;3.61;86.03;96087.45;107811;1245;98072;-78
2024/01/01 06:31:07;;;;;;;53.30;31.00;;;;;;;3.62;85.96;96087.14;107793;1238;102966;-79
2024/01/01 06:33:33;;;;;;;50.20;30.70;;;;;;;3.63;86.01;96084.41;107775;1237;98021;-78
2024/01/01 06:36:00;;;;;;;47.20;30.40;;;;;;;3.66;86.13;96095.88;107758;1239;98019;-78
2024/01/01 06:38:26;;;;;;;46.40;29.30;;;;;;;3.68;86.06;96105.91;107810;1246;97908;-79
2024/01/01 06:40:52;;;;;;;43.90;28.40;;;;;;;3.67;86.03;96109.73;107793;1238;102983;-74
2024/01/01 06:43:18;;;;;;;53.00;32.10;;;;;;;3.69;86.09;96115.36;107803;1238;97930;-74
2024/01/01 06:45:45;;;;;;;52.10;31.10;;;;;;;3.68;86.10;96109.84;107764;1239;98061;-74
2024/01/01 06:48:11;;;;;;;49.60;30.10;;;;;;;3.68;86.12;96109.84;107859;1247;97903;-79
2024/01/01 06:50:38;;;;;;;47.20;29.00;;;;;;;3.65;86.18;96108.02;107798;1238;103335;-79
2024/01/01 06:53:04;;;;;;;51.60;31.70;;;;;;;3.63;86.25;96105.06;107783;1240;97907;-79
2024/01/01 06:55:31;;;;;;;53.70;33.70;;;;;;;3.63;86.21;96104.08;107774;1235;98805;-80
2024/01/01 06:58:00;;;;;;;50.70;31.30;;;;;;;3.63;86.27;96105.09;107881;1249;98021;-74
2024/01/01 07:00:26;;;;;;;57.20;33.40;;;;;;;3.63;86.31;96108.55;107648;1244;103122;-79
2024/01/01 07:02:54;;;;;;;58.70;35.60;;;;;;;3.62;86.34;96111.75;107642;1239;97916;-79
2024/01/01 07:05:22;;;;;;;61.30;35.00;;;;;;;3.61;86.36;96109.08;107817;1238;99030;-78
2024/01/01 07:07:48;;;;;;;53.70;34.40;;;;;;;3.62;86.51;96111.52;107761;1239;97906;-78
2024/01/01 07:10:15;;;;;;;58.60;34.90;;;;;;;3.62;86.56;96111.13;107789;1246;98448;-77
2024/01/01 07:12:41;;;;;;;62.50;37.00;;;;;;;3.63;86.62;96112.36;107834;1239;97919;-77
2024/01/01 07:15:08;;;;;;;58.80;37.10;;;;;;;3.63;86.56;96110.72;107829;1239;99078;-77
2024/01/01 07:17:34;;;;;;;57.50;35.70;;;;;;;3.64;86.72;96109.13;107684;1249;97950;-72
2024/01/01 07:20:00;;;;;;;58.00;36.90;;;;;;;3.63;86.74;96104.16;107808;1238;99019;-72
2024/01/01 07:22:27;;;;;;;61.80;38.50;;;;;;;3.64;86.82;96102.27;107813;1239;97885;-72
2024/01/01 07:24:53;;;;;;;59.70;37.70;;;;;;;3.65;86.90;96094.89;107834;1235;99134;-72
2024/01/01 07:27:21;;;;;;;60.80;37.00;;;;;;;3.66;87.07;96097.48;107337;1242;97989;-72
2024/01/01 07:29:47;;;;;;;62.30;37.50;;;;;;;3.66;87.09;96103.10;107749;1234;98419;-72
2024/01/01 07:32:14;;;;;;;59.10;38.10;;;;;;;3.67;87.09;96104.79;107770;1238;99346;-77
2024/01/01 07:34:40;;;;;;;57.90;35.50;;;;;;;3.67;87.22;96103.56;107767;1237;97828;-78
2024/01/01 07:37:07;;;;;;;43.40;26.90;;;;;;;3.70;87.46;96108.27;107789;1242;98815;-74
2024/01/01 07:39:33;;;;;;;42.60;26.80;;;;;;;3.78;87.92;96111.53;107824;1239;98994;-73
2024/01/01 07:41:59;;;;;;;43.10;26.10;;;;;;;3.86;88.15;96110.85;107828;1238;98827;-74
2024/01/01 07:44:26;;;;;;;43.40;27.30;;;;;;;3.91;88.38;96119.75;107793;1247;99027;-74
2024/01/01 07:46:52;;;;;;;43.50;25.80;;;;;;;3.96;88.37;96116.01;107797;1249;98022;-74
2024/01/01 07:49:18;;;;;;;46.90;26.90;;;;;;;4.03;88.29;96114.51;107775;1235;98447;-74
2024/01/01 07:51:45;;;;;;;42.50;26.90;;;;;;;4.05;88.27;96110.98;107784;1237;99192;-74
2024/01/01 07:54:11;;;;;;;43.70;27.70;;;;;;;4.06;88.21;96104.98;107767;1239;98945;-77
2024/01/01 07:56:43;;;;;;;43.20;27.70;;;;;;;4.10;88.15;96105.41;107833;1239;98927;-77
2024/01/01 07:59:11;;;;;;;46.20;27.40;;;;;;;4.10;88.06;96099.25;107850;1238;97912;-77
2024/01/01 08:01:39;;;;;;;47.90;27.80;;;;;;;4.11;88.06;96102.37;107785;1239;103462;-76
2024/01/01 08:04:05;;;;;;;45.00;28.10;;;;;;;4.11;88.04;96099.27;107764;1244;101180;-78
2024/01/01 08:06:31;;;;;;;42.30;26.60;;;;;;;4.13;87.87;96102.69;107777;1249;97908;-77
2024/01/01 08:08:58;;;;;;;39.90;24.70;;;;;;;4.10;87.82;96098.70;107761;1239;98007;-77
2024/01/01 08:11:24;;;;;;;40.00;24.80;;;;;;;4.10;87.66;96096.61;107860;1241;97971;-77
2024/01/01 08:13:50;;;;;;;39.20;24.90;;;;;;;4.05;87.50;96095.16;107757;1238;101281;-72
2024/01/01 08:16:19;;;;;;;40.50;23.90;;;;;;;4.03;87.46;96102.92;107675;1238;97935;-72
2024/01/01 08:18:46;;;;;;;37.80;23.70;;;;;;;4.02;87.48;96099.52;107737;1246;97854;-72
2024/01/01 08:21:12;;;;;;;32.00;20.70;;;;;;;4.01;87.32;96099.27;107829;1235;98840;-72
2024/01/01 08:23:39;;;;;;;32.40;20.30;;;;;;;3.99;87.23;96104.80;107709;1243;98017;-71
2024/01/01 08:26:06;;;;;;;32.60;19.90;;;;;;;3.96;87.07;96105.42;107748;1237;97907;-72
2024/01/01 08:28:33;;;;;;;32.90;18.70;;;;;;;3.92;87.08;96103.35;107695;1242;97964;-72
2024/01/01 08:31:00;;;;;;;28.60;17.30;;;;;;;3.89;86.98;96103.05;107688;1239;98337;-72
2024/01/01 08:33:27;;;;;;;27.50;17.90;;;;;;;3.87;86.99;96103.70;107502;1236;103447;-77
2024/01/01 08:35:55;;;;;;;25.10;15.60;;;;;;;3.86;87.01;96113.48;107798;1249;99141;-77
2024/01/01 08:38:22;;;;;;;21.30;14.20;;;;;;;3.76;86.74;96111.19;107769;1240;99154;-76
2024/01/01 08:40:48;;;;;;;22.20;14.30;;;;;;;3.70;86.64;96112.23;107881;1239;98027;-76
2024/01/01 08:43:14;;;;;;;21.00;13.20;;;;;;;3.63;86.61;96117.02;107802;1239;98415;-76
2024/01/01 08:45:41;;;;;;;21.20;13.70;;;;;;;3.62;86.73;96120.66;107849;1239;98023;-76
2024/01/01 08:48:07;;;;;;;18.70;13.00;;;;;;;3.64;86.80;96127.96;107913;1249;99995;-79
2024/01/01 08:50:34;;;;;;;21.60;13.90;;;;;;;3.62;86.67;96129.73;107795;1248;98033;-78
2024/01/01 08:53:00;;;;;;;20.10;12.90;;;;;;;3.61;86.65;96136.27;107702;1241;98996;-72
2024/01/01 08:55:27;;;;;;;20.60;12.50;;;;;;;3.63;86.67;96140.73;107887;1235;97974;-72
2024/01/01 08:57:53;;;;;;;16.60;11.10;;;;;;;3.63;86.63;96140.73;107780;1240;98345;-72
2024/01/01 09:00:20;;;;;;;17.70;11.50;;;;;;;3.63;86.60;96143.20;107765;1249;99141;-72
2024/01/01 09:02:46;;;;;;;16.60;10.70;;;;;;;3.60;86.42;96146.81;107791;1241;98055;-72
2024/01/01 09:05:15;;;;;;;14.30;9.50;;;;;;;3.56;86.15;96149.41;107862;1240;99141;-71
2024/01/01 09:07:41;;;;;;;14.30;9.60;;;;;;;3.53;86.10;96151.23;107777;1239;99811;-72
2024/01/01 09:10:08;;;;;;;14.10;9.00;;;;;;;3.49;85.93;96152.83;107846;1240;98020;-71
2024/01/01 09:12:35;;;;;;;12.20;8.90;;;;;;;3.44;85.77;96148.49;107760;1245;98091;-73
2024/01/01 09:15:01;;;;;;;13.80;9.10;;;;;;;3.41;85.86;96142.64;107828;1240;97907;-74
2024/01/01 09:17:28;;;;;;;14.00;9.50;;;;;;;3.39;85.89;96145.79;107751;1237;97914;-79
2024/01/01 09:19:54;;;;;;;12.90;9.00;;;;;;;3.39;85.93;96153.74;107807;1239;98017;-78
2024/01/01 09:22:20;;;;;;;14.80;8.90;;;;;;;3.38;85.94;96151.58;107777;1239;97943;-79
2024/01/01 09:24:47;;;;;;;12.90;9.20;;;;;;;3.36;85.82;96142.64;107779;1237;98017;-79
2024/01/01 09:27:13;;;;;;;14.80;10.30;;;;;;;3.36;85.75;96144.68;107831;1241;99154;-79
2024/01/01 09:29:39;;;;;;;14.60;9.10;;;;;;;3.32;85.64;96148.71;107721;1239;99177;-79
2024/01/01 09:32:06;;;;;;;12.40;8.10;;;;;;;3.29;85.49;96149.25;107763;1238;98024;-77
2024/01/01 09:34:32;;;;;;;15.20;8.60;;;;;;;3.26;85.45;96140.02;107790;1238;97902;-73
2024/01/01 09:36:59;;;;;;;12.40;8.30;;;;;;;3.27;85.49;96144.16;107880;1240;97938;-74
2024/01/01 09:39:25;;;;;;;11.20;7.60;;;;;;;3.24;85.40;96140.91;107801;1239;97900;-74
2024/01/01 09:41:52;;;;;;;14.50;9.50;;;;;;;3.20;85.31;96134.38;107779;1248;97831;-74
2024/01/01 09:44:19;;;;;;;14.20;9.20;;;;;;;3.16;85.33;96130.56;107401;1249;99033;-74
2024/01/01 09:46:47;;;;;;;15.00;9.80;;;;;;;3.16;85.32;96135.69;107732;1239;98635;-79
2024/01/01 09:49:13;;;;;;;11.50;8.30;;;;;;;3.15;85.28;96140.56;107758;1245;97984;-71
2024/01/01 09:51:40;;;;;;;15.20;9.20;;;;;;;3.12;85.34;96144.62;107862;1240;97988;-72
2024/01/01 09:54:08;;;;;;;11.90;8.30;;;;;;;3.09;85.27;96143.01;107780;1239;103223;-72
2024/01/01 09:56:34;;;;;;;10.40;7.50;;;;;;;3.07;85.28;96141.83;107816;1248;101234;-72
2024/01/01 09:59:00;;;;;;;12.50;8.60;;;;;;;3.08;85.32;96141.59;107766;1240;97900;-72
2024/01/01 10:01:28;;;;;;;12.70;8.80;;;;;;;3.06;85.29;96136.30;107824;1238;98520;-72
2024/01/01 10:04:07;;;;;;;11.40;8.00;;;;;;;3.06;85.30;96138.45;107783;1240;97957;-72
2024/01/01 10:06:36;;;;;;;11.30;7.80;;;;;;;3.05;85.37;96136.27;107842;1249;103607;-72
2024/01/01 10:09:12;;;;;;;11.40;7.70;;;;;;;3.05;85.29;96138.78;107802;1239;101653;-74
2024/01/01 10:11:41;;;;;;;13.40;8.20;;;;;;;3.04;85.22;96138.52;107752;1239;100146;-75
2024/01/01 10:14:08;;;;;;;9.10;7.00;;;;;;;3.04;85.16;96141.19;107820;1238;98027;-72
2024/01/01 10:16:34;;;;;;;10.50;7.20;;;;;;;3.02;85.09;96143.40;107695;1239;98816;-72
2024/01/01 10:19:03;;;;;;;11.60;7.30;;;;;;;3.00;84.95;96149.09;107712;1239;98006;-72
2024/01/01 10:21:32;;;;;;;9.40;6.60;;;;;;;2.95;84.83;96149.26;107797;1240;101255;-72
2024/01/01 10:23:59;;;;;;;10.90;7.10;;;;;;;2.91;84.82;96150.17;107812;1239;98528;-72
2024/01/01 10:26:26;;;;;;;17.00;10.40;;;;;;;2.85;84.74;96152.35;107818;1244;97944;-72
2024/01/01 10:28:52;;;;;;;11.20;7.80;;;;;;;2.79;84.72;96156.10;107766;1238;99177;-79
2024/01/01 10:31:18;;;;;;;10.90;7.70;;;;;;;2.75;84.77;96155.27;107599;1239;98024;-73
2024/01/01 10:33:49;;;;;;;9.20;6.80;;;;;;;2.75;84.64;96160.47;107806;1248;98829;-73
2024/01/01 10:36:16;;;;;;;9.00;6.80;;;;;;;2.67;84.57;96160.85;107770;1236;97892;-73
2024/01/01 10:38:45;;;;;;;10.60;6.70;;;;;;;2.61;84.51;96163.09;107853;1242;99242;-73
2024/01/01 10:41:12;;;;;;;12.50;8.50;;;;;;;2.53;84.36;96166.02;107774;1239;103237;-73
2024/01/01 10:43:40;;;;;;;13.40;10.10;;;;;;;2.39;84.17;96165.04;107806;1239;98353;-74
2024/01/01 10:46:07;;;;;;;18.50;12.50;;;;;;;2.25;84.12;96173.21;107789;1248;100290;-78
2024/01/01 10:48:35;;;;;;;18.50;12.50;;;;;;;2.13;84.02;96174.64;107683;1239;97908;-73
2024/01/01 10:51:37;;;;;;;15.30;10.90;;;;;;;2.04;84.06;96179.29;107713;1240;97905;-73
2024/01/01 10:54:28;;;;;;;18.40;12.90;;;;;;;1.91;84.21;96172.27;107780;1238;103557;-72
2024/01/01 10:57:24;;;;;;;17.40;12.30;;;;;;;1.80;84.31;96175.74;107809;1238;99960;-73
2024/01/01 11:00:08;;;;;;;12.90;10.40;;;;;;;1.72;84.38;96176.42;107703;1248;99808;-73
2024/01/01 11:02:35;;;;;;;13.50;10.30;;;;;;;1.64;84.49;96174.36;107676;1249;99141;-83
2024/01/01 11:05:08;;;;;;;12.80;9.70;;;;;;;1.59;84.59;96170.35;107788;1248;97962;-83
2024/01/01 11:08:02;;;;;;;11.40;7.90;;;;;;;1.57;84.71;96176.15;107804;1244;103154;-72
2024/01/01 11:10:41;;;;;;;8.40;6.20;;;;;;;1.52;84.85;96180.60;107788;1247;101643;-72
2024/01/01 11:13:25;;;;;;;8.00;5.80;;;;;;;1.45;85.13;96184.59;107802;1248;98837;-73
2024/01/01 11:15:58;;;;;;;8.90;6.20;;;;;;;1.44;85.15;96181.39;107750;1240;97848;-73
2024/01/01 11:18:32;;;;;;;10.20;6.80;;;;;;;1.45;85.22;96179.64;107760;1249;98370;-73